sensor_id;sensor_type;location;lat;lon;timestamp;P1;durP1;ratioP1;P2;durP2;ratioP2
13520;SDS011;6832;51.186;3.236;2024-03-25T00:00:09;41.90;;;21.67;;
13520;SDS011;6832;51.186;3.236;2024-03-25T00:02:37;39.87;;;21.13;;
13520;SDS011;6832;51.186;3.236;2024-03-25T00:05:04;43.73;;;21.97;;
13520;SDS011;6832;51.186;3.236;2024-03-25T00:07:34;54.60;;;22.53;;
13520;SDS011;6832;51.186;3.236;2024-03-25T00:10:00;47.70;;;23.37;;
13520;SDS011;6832;51.186;3.236;2024-03-25T00:12:27;52.53;;;22.23;;
13520;SDS011;6832;51.186;3.236;2024-03-25T00:14:53;45.20;;;21.47;;
13520;SDS011;6832;51.186;3.236;2024-03-25T00:17:20;47.43;;;24.27;;
13520;SDS011;6832;51.186;3.236;2024-03-25T00:19:46;52.53;;;21.80;;
13520;SDS011;6832;51.186;3.236;2024-03-25T00:22:17;49.63;;;25.13;;
13520;SDS011;6832;51.186;3.236;2024-03-25T00:24:44;59.70;;;25.60;;
13520;SDS011;6832;51.186;3.236;2024-03-25T00:27:11;56.30;;;24.70;;
13520;SDS011;6832;51.186;3.236;2024-03-25T00:29:37;46.33;;;22.93;;
13520;SDS011;6832;51.186;3.236;2024-03-25T00:32:04;51.47;;;21.93;;
13520;SDS011;6832;51.186;3.236;2024-03-25T00:34:31;50.43;;;22.23;;
13520;SDS011;6832;51.186;3.236;2024-03-25T00:36:58;41.03;;;21.13;;
13520;SDS011;6832;51.186;3.236;2024-03-25T00:39:26;58.33;;;21.73;;
13520;SDS011;6832;51.186;3.236;2024-03-25T00:41:54;42.73;;;22.27;;
13520;SDS011;6832;51.186;3.236;2024-03-25T00:44:20;49.17;;;20.40;;
13520;SDS011;6832;51.186;3.236;2024-03-25T00:46:47;50.27;;;22.10;;
13520;SDS011;6832;51.186;3.236;2024-03-25T00:49:13;45.43;;;22.77;;
13520;SDS011;6832;51.186;3.236;2024-03-25T00:51:40;54.97;;;22.90;;
13520;SDS011;6832;51.186;3.236;2024-03-25T00:54:06;50.80;;;21.73;;
13520;SDS011;6832;51.186;3.236;2024-03-25T00:56:34;54.90;;;23.03;;
13520;SDS011;6832;51.186;3.236;2024-03-25T00:59:01;47.93;;;21.87;;
13520;SDS011;6832;51.186;3.236;2024-03-25T01:01:28;67.30;;;23.87;;
13520;SDS011;6832;51.186;3.236;2024-03-25T01:03:54;49.20;;;20.70;;
13520;SDS011;6832;51.186;3.236;2024-03-25T01:06:21;53.73;;;23.37;;
13520;SDS011;6832;51.186;3.236;2024-03-25T01:08:47;59.03;;;28.23;;
13520;SDS011;6832;51.186;3.236;2024-03-25T01:11:14;52.47;;;24.33;;
13520;SDS011;6832;51.186;3.236;2024-03-25T01:13:42;51.73;;;24.00;;
13520;SDS011;6832;51.186;3.236;2024-03-25T01:16:09;37.93;;;21.57;;
13520;SDS011;6832;51.186;3.236;2024-03-25T01:18:35;50.50;;;22.50;;
13520;SDS011;6832;51.186;3.236;2024-03-25T01:21:02;45.40;;;21.93;;
13520;SDS011;6832;51.186;3.236;2024-03-25T01:23:29;50.33;;;23.57;;
13520;SDS011;6832;51.186;3.236;2024-03-25T01:25:56;43.90;;;22.70;;
13520;SDS011;6832;51.186;3.236;2024-03-25T01:28:22;62.37;;;23.67;;
13520;SDS011;6832;51.186;3.236;2024-03-25T01:30:51;49.07;;;20.57;;
13520;SDS011;6832;51.186;3.236;2024-03-25T01:33:17;44.70;;;21.40;;
13520;SDS011;6832;51.186;3.236;2024-03-25T01:35:44;45.53;;;22.13;;
13520;SDS011;6832;51.186;3.236;2024-03-25T01:38:10;44.47;;;21.37;;
13520;SDS011;6832;51.186;3.236;2024-03-25T01:40:37;46.07;;;21.80;;
13520;SDS011;6832;51.186;3.236;2024-03-25T01:43:03;73.87;;;24.13;;
13520;SDS011;6832;51.186;3.236;2024-03-25T01:45:30;54.93;;;22.97;;
13520;SDS011;6832;51.186;3.236;2024-03-25T01:48:00;41.93;;;21.13;;
13520;SDS011;6832;51.186;3.236;2024-03-25T01:50:29;44.00;;;20.10;;
13520;SDS011;6832;51.186;3.236;2024-03-25T01:52:56;45.07;;;20.20;;
13520;SDS011;6832;51.186;3.236;2024-03-25T01:55:24;72.40;;;22.70;;
13520;SDS011;6832;51.186;3.236;2024-03-25T01:57:52;39.10;;;20.83;;
13520;SDS011;6832;51.186;3.236;2024-03-25T02:00:19;39.97;;;20.93;;
13520;SDS011;6832;51.186;3.236;2024-03-25T02:02:47;53.63;;;24.93;;
13520;SDS011;6832;51.186;3.236;2024-03-25T02:05:16;76.63;;;25.73;;
13520;SDS011;6832;51.186;3.236;2024-03-25T02:07:43;55.20;;;25.30;;
13520;SDS011;6832;51.186;3.236;2024-03-25T02:10:10;61.50;;;24.77;;
13520;SDS011;6832;51.186;3.236;2024-03-25T02:12:40;46.90;;;24.30;;
13520;SDS011;6832;51.186;3.236;2024-03-25T02:15:08;47.80;;;24.00;;
13520;SDS011;6832;51.186;3.236;2024-03-25T02:17:34;59.70;;;27.97;;
13520;SDS011;6832;51.186;3.236;2024-03-25T02:20:01;50.93;;;26.13;;
13520;SDS011;6832;51.186;3.236;2024-03-25T02:22:29;50.77;;;23.63;;
13520;SDS011;6832;51.186;3.236;2024-03-25T02:24:56;54.77;;;22.77;;
13520;SDS011;6832;51.186;3.236;2024-03-25T02:27:24;52.87;;;25.03;;
13520;SDS011;6832;51.186;3.236;2024-03-25T02:29:53;55.43;;;24.97;;
13520;SDS011;6832;51.186;3.236;2024-03-25T02:32:19;51.10;;;23.97;;
13520;SDS011;6832;51.186;3.236;2024-03-25T02:34:47;40.00;;;20.47;;
13520;SDS011;6832;51.186;3.236;2024-03-25T02:37:17;42.20;;;19.23;;
13520;SDS011;6832;51.186;3.236;2024-03-25T02:39:44;43.57;;;21.37;;
13520;SDS011;6832;51.186;3.236;2024-03-25T02:42:10;47.27;;;22.20;;
13520;SDS011;6832;51.186;3.236;2024-03-25T02:44:39;36.67;;;19.40;;
13520;SDS011;6832;51.186;3.236;2024-03-25T02:47:08;64.27;;;24.53;;
13520;SDS011;6832;51.186;3.236;2024-03-25T02:49:37;51.07;;;21.17;;
13520;SDS011;6832;51.186;3.236;2024-03-25T02:52:03;61.13;;;25.70;;
13520;SDS011;6832;51.186;3.236;2024-03-25T02:54:30;55.40;;;23.00;;
13520;SDS011;6832;51.186;3.236;2024-03-25T02:56:56;57.13;;;20.73;;
13520;SDS011;6832;51.186;3.236;2024-03-25T02:59:23;40.63;;;21.43;;
13520;SDS011;6832;51.186;3.236;2024-03-25T03:01:50;47.37;;;20.73;;
13520;SDS011;6832;51.186;3.236;2024-03-25T03:04:17;42.27;;;19.77;;
13520;SDS011;6832;51.186;3.236;2024-03-25T03:06:43;40.97;;;19.90;;
13520;SDS011;6832;51.186;3.236;2024-03-25T03:09:10;51.73;;;21.47;;
13520;SDS011;6832;51.186;3.236;2024-03-25T03:11:36;49.57;;;20.90;;
13520;SDS011;6832;51.186;3.236;2024-03-25T03:14:03;59.23;;;21.30;;
13520;SDS011;6832;51.186;3.236;2024-03-25T03:16:29;50.27;;;19.23;;
13520;SDS011;6832;51.186;3.236;2024-03-25T03:18:57;48.80;;;21.93;;
13520;SDS011;6832;51.186;3.236;2024-03-25T03:21:23;49.57;;;21.87;;
13520;SDS011;6832;51.186;3.236;2024-03-25T03:23:51;48.03;;;19.30;;
13520;SDS011;6832;51.186;3.236;2024-03-25T03:26:16;50.70;;;21.47;;
13520;SDS011;6832;51.186;3.236;2024-03-25T03:28:44;71.43;;;21.67;;
13520;SDS011;6832;51.186;3.236;2024-03-25T03:31:10;69.40;;;21.27;;
13520;SDS011;6832;51.186;3.236;2024-03-25T03:33:37;50.53;;;21.37;;
13520;SDS011;6832;51.186;3.236;2024-03-25T03:36:04;47.70;;;24.80;;
13520;SDS011;6832;51.186;3.236;2024-03-25T03:38:32;44.73;;;23.07;;
13520;SDS011;6832;51.186;3.236;2024-03-25T03:40:58;39.57;;;19.83;;
13520;SDS011;6832;51.186;3.236;2024-03-25T03:43:25;52.00;;;23.43;;
13520;SDS011;6832;51.186;3.236;2024-03-25T03:45:51;41.40;;;22.63;;
13520;SDS011;6832;51.186;3.236;2024-03-25T03:48:18;34.13;;;18.37;;
13520;SDS011;6832;51.186;3.236;2024-03-25T03:50:44;45.57;;;21.87;;
13520;SDS011;6832;51.186;3.236;2024-03-25T03:53:13;49.83;;;19.00;;
13520;SDS011;6832;51.186;3.236;2024-03-25T03:55:39;42.90;;;21.27;;
13520;SDS011;6832;51.186;3.236;2024-03-25T03:58:06;45.93;;;20.57;;
13520;SDS011;6832;51.186;3.236;2024-03-25T04:00:33;52.10;;;21.07;;
13520;SDS011;6832;51.186;3.236;2024-03-25T04:03:00;45.40;;;19.27;;
13520;SDS011;6832;51.186;3.236;2024-03-25T04:05:30;54.30;;;22.40;;
13520;SDS011;6832;51.186;3.236;2024-03-25T04:07:57;51.77;;;21.53;;
13520;SDS011;6832;51.186;3.236;2024-03-25T04:10:26;57.50;;;23.17;;
13520;SDS011;6832;51.186;3.236;2024-03-25T04:12:54;41.33;;;20.00;;
13520;SDS011;6832;51.186;3.236;2024-03-25T04:15:20;53.43;;;21.57;;
13520;SDS011;6832;51.186;3.236;2024-03-25T04:17:48;46.10;;;21.60;;
13520;SDS011;6832;51.186;3.236;2024-03-25T04:20:14;65.77;;;23.13;;
13520;SDS011;6832;51.186;3.236;2024-03-25T04:22:42;68.80;;;23.90;;
13520;SDS011;6832;51.186;3.236;2024-03-25T04:25:08;45.40;;;21.70;;
13520;SDS011;6832;51.186;3.236;2024-03-25T04:27:38;50.97;;;21.57;;
13520;SDS011;6832;51.186;3.236;2024-03-25T04:30:04;43.37;;;20.93;;
13520;SDS011;6832;51.186;3.236;2024-03-25T04:32:32;67.27;;;27.93;;
13520;SDS011;6832;51.186;3.236;2024-03-25T04:34:58;57.03;;;25.00;;
13520;SDS011;6832;51.186;3.236;2024-03-25T04:37:25;59.63;;;26.83;;
13520;SDS011;6832;51.186;3.236;2024-03-25T04:39:51;60.77;;;23.60;;
13520;SDS011;6832;51.186;3.236;2024-03-25T04:42:17;47.80;;;23.57;;
13520;SDS011;6832;51.186;3.236;2024-03-25T04:44:44;43.90;;;22.17;;
13520;SDS011;6832;51.186;3.236;2024-03-25T04:47:11;39.33;;;20.87;;
13520;SDS011;6832;51.186;3.236;2024-03-25T04:49:37;51.63;;;25.87;;
13520;SDS011;6832;51.186;3.236;2024-03-25T04:52:03;40.37;;;21.47;;
13520;SDS011;6832;51.186;3.236;2024-03-25T04:54:29;53.53;;;24.40;;
13520;SDS011;6832;51.186;3.236;2024-03-25T04:56:55;43.87;;;24.07;;
13520;SDS011;6832;51.186;3.236;2024-03-25T04:59:21;55.73;;;24.90;;
13520;SDS011;6832;51.186;3.236;2024-03-25T05:01:48;42.57;;;26.77;;
13520;SDS011;6832;51.186;3.236;2024-03-25T05:04:15;47.30;;;27.77;;
13520;SDS011;6832;51.186;3.236;2024-03-25T05:06:40;47.77;;;28.03;;
13520;SDS011;6832;51.186;3.236;2024-03-25T05:09:07;49.20;;;33.20;;
13520;SDS011;6832;51.186;3.236;2024-03-25T05:11:33;53.80;;;34.77;;
13520;SDS011;6832;51.186;3.236;2024-03-25T05:13:59;53.37;;;34.43;;
13520;SDS011;6832;51.186;3.236;2024-03-25T05:16:25;49.47;;;36.23;;
13520;SDS011;6832;51.186;3.236;2024-03-25T05:18:52;48.20;;;36.80;;
13520;SDS011;6832;51.186;3.236;2024-03-25T05:21:18;42.33;;;31.60;;
13520;SDS011;6832;51.186;3.236;2024-03-25T05:23:44;48.93;;;36.47;;
13520;SDS011;6832;51.186;3.236;2024-03-25T05:26:10;47.10;;;38.67;;
13520;SDS011;6832;51.186;3.236;2024-03-25T05:28:36;61.53;;;42.17;;
13520;SDS011;6832;51.186;3.236;2024-03-25T05:31:05;55.37;;;37.70;;
13520;SDS011;6832;51.186;3.236;2024-03-25T05:33:31;62.53;;;38.43;;
13520;SDS011;6832;51.186;3.236;2024-03-25T05:35:59;67.63;;;36.70;;
13520;SDS011;6832;51.186;3.236;2024-03-25T05:38:25;60.97;;;37.73;;
13520;SDS011;6832;51.186;3.236;2024-03-25T05:40:51;56.83;;;37.53;;
13520;SDS011;6832;51.186;3.236;2024-03-25T05:43:17;46.90;;;41.67;;
13520;SDS011;6832;51.186;3.236;2024-03-25T05:45:49;54.57;;;42.30;;
13520;SDS011;6832;51.186;3.236;2024-03-25T05:48:16;49.83;;;38.87;;
13520;SDS011;6832;51.186;3.236;2024-03-25T05:50:42;42.20;;;37.73;;
13520;SDS011;6832;51.186;3.236;2024-03-25T05:53:09;49.60;;;37.37;;
13520;SDS011;6832;51.186;3.236;2024-03-25T05:55:35;58.23;;;37.07;;
13520;SDS011;6832;51.186;3.236;2024-03-25T05:58:01;52.90;;;42.40;;
13520;SDS011;6832;51.186;3.236;2024-03-25T06:00:28;56.97;;;41.03;;
13520;SDS011;6832;51.186;3.236;2024-03-25T06:02:54;47.30;;;39.87;;
13520;SDS011;6832;51.186;3.236;2024-03-25T06:05:20;70.67;;;40.43;;
13520;SDS011;6832;51.186;3.236;2024-03-25T06:07:46;55.60;;;40.00;;
13520;SDS011;6832;51.186;3.236;2024-03-25T06:10:13;49.60;;;42.03;;
13520;SDS011;6832;51.186;3.236;2024-03-25T06:12:39;54.27;;;40.73;;
13520;SDS011;6832;51.186;3.236;2024-03-25T06:15:06;66.23;;;43.30;;
13520;SDS011;6832;51.186;3.236;2024-03-25T06:17:33;48.77;;;43.53;;
13520;SDS011;6832;51.186;3.236;2024-03-25T06:19:59;56.63;;;44.07;;
13520;SDS011;6832;51.186;3.236;2024-03-25T06:22:25;56.63;;;44.00;;
13520;SDS011;6832;51.186;3.236;2024-03-25T06:24:51;72.00;;;45.73;;
13520;SDS011;6832;51.186;3.236;2024-03-25T06:27:18;49.27;;;42.03;;
13520;SDS011;6832;51.186;3.236;2024-03-25T06:29:44;51.73;;;44.37;;
13520;SDS011;6832;51.186;3.236;2024-03-25T06:32:10;62.10;;;49.27;;
13520;SDS011;6832;51.186;3.236;2024-03-25T06:34:54;63.37;;;49.93;;
13520;SDS011;6832;51.186;3.236;2024-03-25T06:37:20;65.43;;;44.77;;
13520;SDS011;6832;51.186;3.236;2024-03-25T06:39:46;64.30;;;44.63;;
13520;SDS011;6832;51.186;3.236;2024-03-25T06:42:12;60.13;;;47.37;;
13520;SDS011;6832;51.186;3.236;2024-03-25T06:44:39;57.80;;;43.33;;
13520;SDS011;6832;51.186;3.236;2024-03-25T06:47:05;62.90;;;44.90;;
13520;SDS011;6832;51.186;3.236;2024-03-25T06:49:31;52.83;;;46.07;;
13520;SDS011;6832;51.186;3.236;2024-03-25T06:51:57;49.20;;;42.27;;
13520;SDS011;6832;51.186;3.236;2024-03-25T06:54:23;58.40;;;45.37;;
13520;SDS011;6832;51.186;3.236;2024-03-25T06:56:49;77.63;;;48.90;;
13520;SDS011;6832;51.186;3.236;2024-03-25T06:59:15;51.57;;;43.17;;
13520;SDS011;6832;51.186;3.236;2024-03-25T07:01:42;55.87;;;45.90;;
13520;SDS011;6832;51.186;3.236;2024-03-25T07:04:08;55.50;;;45.47;;
13520;SDS011;6832;51.186;3.236;2024-03-25T07:06:34;76.07;;;48.47;;
13520;SDS011;6832;51.186;3.236;2024-03-25T07:09:00;65.27;;;47.50;;
13520;SDS011;6832;51.186;3.236;2024-03-25T07:11:26;59.27;;;45.27;;
13520;SDS011;6832;51.186;3.236;2024-03-25T07:13:52;74.27;;;48.33;;
13520;SDS011;6832;51.186;3.236;2024-03-25T07:16:18;62.23;;;52.57;;
13520;SDS011;6832;51.186;3.236;2024-03-25T07:18:45;61.33;;;51.47;;
13520;SDS011;6832;51.186;3.236;2024-03-25T07:21:11;88.00;;;54.27;;
13520;SDS011;6832;51.186;3.236;2024-03-25T07:23:37;68.93;;;52.27;;
13520;SDS011;6832;51.186;3.236;2024-03-25T07:26:03;79.87;;;53.63;;
13520;SDS011;6832;51.186;3.236;2024-03-25T07:28:29;70.60;;;53.23;;
13520;SDS011;6832;51.186;3.236;2024-03-25T07:30:55;74.70;;;51.50;;
13520;SDS011;6832;51.186;3.236;2024-03-25T07:33:21;88.10;;;50.23;;
13520;SDS011;6832;51.186;3.236;2024-03-25T07:35:49;64.60;;;46.43;;
13520;SDS011;6832;51.186;3.236;2024-03-25T07:38:15;85.63;;;49.13;;
13520;SDS011;6832;51.186;3.236;2024-03-25T07:40:41;70.00;;;53.40;;
13520;SDS011;6832;51.186;3.236;2024-03-25T07:43:07;64.93;;;49.90;;
13520;SDS011;6832;51.186;3.236;2024-03-25T07:45:33;75.83;;;50.33;;
13520;SDS011;6832;51.186;3.236;2024-03-25T07:47:59;74.20;;;49.90;;
13520;SDS011;6832;51.186;3.236;2024-03-25T07:50:25;69.50;;;47.97;;
13520;SDS011;6832;51.186;3.236;2024-03-25T07:52:52;70.20;;;50.20;;
13520;SDS011;6832;51.186;3.236;2024-03-25T07:55:18;75.50;;;48.90;;
13520;SDS011;6832;51.186;3.236;2024-03-25T07:57:44;70.43;;;48.87;;
13520;SDS011;6832;51.186;3.236;2024-03-25T08:00:11;100.83;;;50.87;;
13520;SDS011;6832;51.186;3.236;2024-03-25T08:02:38;60.27;;;47.80;;
13520;SDS011;6832;51.186;3.236;2024-03-25T08:05:04;66.87;;;49.73;;
13520;SDS011;6832;51.186;3.236;2024-03-25T08:07:30;74.70;;;52.77;;
13520;SDS011;6832;51.186;3.236;2024-03-25T08:09:58;65.27;;;54.27;;
13520;SDS011;6832;51.186;3.236;2024-03-25T08:12:24;70.07;;;51.57;;
13520;SDS011;6832;51.186;3.236;2024-03-25T08:14:50;67.93;;;49.63;;
13520;SDS011;6832;51.186;3.236;2024-03-25T08:17:16;82.50;;;51.33;;
13520;SDS011;6832;51.186;3.236;2024-03-25T08:19:42;72.87;;;50.97;;
13520;SDS011;6832;51.186;3.236;2024-03-25T08:22:08;75.77;;;52.60;;
13520;SDS011;6832;51.186;3.236;2024-03-25T08:24:33;98.67;;;55.87;;
13520;SDS011;6832;51.186;3.236;2024-03-25T08:27:01;71.53;;;52.13;;
13520;SDS011;6832;51.186;3.236;2024-03-25T08:29:27;85.10;;;56.50;;
13520;SDS011;6832;51.186;3.236;2024-03-25T08:31:54;74.63;;;53.67;;
13520;SDS011;6832;51.186;3.236;2024-03-25T08:34:20;81.13;;;50.57;;
13520;SDS011;6832;51.186;3.236;2024-03-25T08:36:45;80.67;;;50.80;;
13520;SDS011;6832;51.186;3.236;2024-03-25T08:39:11;67.47;;;51.47;;
13520;SDS011;6832;51.186;3.236;2024-03-25T08:41:37;83.23;;;59.33;;
13520;SDS011;6832;51.186;3.236;2024-03-25T08:44:05;70.60;;;54.00;;
13520;SDS011;6832;51.186;3.236;2024-03-25T08:46:31;68.47;;;51.67;;
13520;SDS011;6832;51.186;3.236;2024-03-25T08:48:57;78.83;;;54.73;;
13520;SDS011;6832;51.186;3.236;2024-03-25T08:51:24;81.77;;;50.70;;
13520;SDS011;6832;51.186;3.236;2024-03-25T08:53:50;67.80;;;46.47;;
13520;SDS011;6832;51.186;3.236;2024-03-25T08:56:16;74.60;;;51.53;;
13520;SDS011;6832;51.186;3.236;2024-03-25T08:58:42;74.00;;;49.50;;
13520;SDS011;6832;51.186;3.236;2024-03-25T09:01:09;58.83;;;50.10;;
13520;SDS011;6832;51.186;3.236;2024-03-25T09:03:35;75.73;;;49.43;;
13520;SDS011;6832;51.186;3.236;2024-03-25T09:06:01;68.33;;;49.60;;
13520;SDS011;6832;51.186;3.236;2024-03-25T09:08:27;70.03;;;54.17;;
13520;SDS011;6832;51.186;3.236;2024-03-25T09:10:53;88.63;;;49.30;;
13520;SDS011;6832;51.186;3.236;2024-03-25T09:13:37;70.43;;;49.93;;
13520;SDS011;6832;51.186;3.236;2024-03-25T09:16:03;71.60;;;47.53;;
13520;SDS011;6832;51.186;3.236;2024-03-25T09:18:31;65.40;;;47.33;;
13520;SDS011;6832;51.186;3.236;2024-03-25T09:20:57;54.53;;;45.27;;
13520;SDS011;6832;51.186;3.236;2024-03-25T09:23:23;71.33;;;47.73;;
13520;SDS011;6832;51.186;3.236;2024-03-25T09:25:52;86.50;;;51.87;;
13520;SDS011;6832;51.186;3.236;2024-03-25T09:28:18;70.13;;;49.97;;
13520;SDS011;6832;51.186;3.236;2024-03-25T09:30:44;63.10;;;43.63;;
13520;SDS011;6832;51.186;3.236;2024-03-25T09:33:10;72.83;;;46.90;;
13520;SDS011;6832;51.186;3.236;2024-03-25T09:35:38;94.60;;;47.63;;
13520;SDS011;6832;51.186;3.236;2024-03-25T09:38:03;78.53;;;46.90;;
13520;SDS011;6832;51.186;3.236;2024-03-25T09:40:29;84.60;;;44.53;;
13520;SDS011;6832;51.186;3.236;2024-03-25T09:42:56;70.00;;;46.63;;
13520;SDS011;6832;51.186;3.236;2024-03-25T09:45:23;93.70;;;50.20;;
13520;SDS011;6832;51.186;3.236;2024-03-25T09:47:50;77.63;;;48.77;;
13520;SDS011;6832;51.186;3.236;2024-03-25T09:50:16;65.20;;;45.17;;
13520;SDS011;6832;51.186;3.236;2024-03-25T09:52:44;56.73;;;44.23;;
13520;SDS011;6832;51.186;3.236;2024-03-25T09:55:11;78.17;;;43.87;;
13520;SDS011;6832;51.186;3.236;2024-03-25T09:57:37;90.27;;;49.80;;
13520;SDS011;6832;51.186;3.236;2024-03-25T10:00:04;66.63;;;46.87;;
13520;SDS011;6832;51.186;3.236;2024-03-25T10:02:32;72.80;;;47.43;;
13520;SDS011;6832;51.186;3.236;2024-03-25T10:04:59;77.77;;;50.20;;
13520;SDS011;6832;51.186;3.236;2024-03-25T10:07:25;63.33;;;48.23;;
13520;SDS011;6832;51.186;3.236;2024-03-25T10:09:53;66.53;;;45.90;;
13520;SDS011;6832;51.186;3.236;2024-03-25T10:12:19;63.20;;;46.43;;
13520;SDS011;6832;51.186;3.236;2024-03-25T10:14:45;79.07;;;46.83;;
13520;SDS011;6832;51.186;3.236;2024-03-25T10:17:11;58.70;;;48.30;;
13520;SDS011;6832;51.186;3.236;2024-03-25T10:19:37;75.80;;;50.87;;
13520;SDS011;6832;51.186;3.236;2024-03-25T10:22:04;75.67;;;51.63;;
13520;SDS011;6832;51.186;3.236;2024-03-25T10:24:40;70.60;;;51.60;;
13520;SDS011;6832;51.186;3.236;2024-03-25T10:27:11;106.43;;;73.10;;
13520;SDS011;6832;51.186;3.236;2024-03-25T10:29:43;124.63;;;63.53;;
13520;SDS011;6832;51.186;3.236;2024-03-25T10:32:09;89.07;;;58.27;;
13520;SDS011;6832;51.186;3.236;2024-03-25T10:34:35;116.03;;;54.97;;
13520;SDS011;6832;51.186;3.236;2024-03-25T10:37:01;78.30;;;58.30;;
13520;SDS011;6832;51.186;3.236;2024-03-25T10:39:31;88.23;;;61.50;;
13520;SDS011;6832;51.186;3.236;2024-03-25T10:41:57;101.57;;;61.93;;
13520;SDS011;6832;51.186;3.236;2024-03-25T10:44:26;71.73;;;61.90;;
13520;SDS011;6832;51.186;3.236;2024-03-25T10:46:55;99.87;;;64.63;;
13520;SDS011;6832;51.186;3.236;2024-03-25T10:49:27;77.77;;;67.50;;
13520;SDS011;6832;51.186;3.236;2024-03-25T10:52:00;78.63;;;70.50;;
13520;SDS011;6832;51.186;3.236;2024-03-25T10:54:28;76.27;;;69.50;;
13520;SDS011;6832;51.186;3.236;2024-03-25T10:56:56;74.83;;;54.13;;
13520;SDS011;6832;51.186;3.236;2024-03-25T10:59:24;69.20;;;53.67;;
13520;SDS011;6832;51.186;3.236;2024-03-25T11:01:54;73.03;;;56.67;;
13520;SDS011;6832;51.186;3.236;2024-03-25T11:04:20;66.80;;;55.90;;
13520;SDS011;6832;51.186;3.236;2024-03-25T11:06:47;74.53;;;64.43;;
13520;SDS011;6832;51.186;3.236;2024-03-25T11:09:21;108.33;;;77.63;;
13520;SDS011;6832;51.186;3.236;2024-03-25T11:11:49;66.53;;;59.93;;
13520;SDS011;6832;51.186;3.236;2024-03-25T11:14:15;85.43;;;66.23;;
13520;SDS011;6832;51.186;3.236;2024-03-25T11:16:43;74.90;;;68.00;;
13520;SDS011;6832;51.186;3.236;2024-03-25T11:19:10;85.97;;;77.23;;
13520;SDS011;6832;51.186;3.236;2024-03-25T11:21:36;77.77;;;70.47;;
13520;SDS011;6832;51.186;3.236;2024-03-25T11:24:06;77.33;;;69.30;;
13520;SDS011;6832;51.186;3.236;2024-03-25T11:26:32;81.10;;;73.67;;
13520;SDS011;6832;51.186;3.236;2024-03-25T11:28:58;81.97;;;73.70;;
13520;SDS011;6832;51.186;3.236;2024-03-25T11:31:25;69.50;;;61.97;;
13520;SDS011;6832;51.186;3.236;2024-03-25T11:33:53;77.30;;;70.83;;
13520;SDS011;6832;51.186;3.236;2024-03-25T11:36:20;77.23;;;70.03;;
13520;SDS011;6832;51.186;3.236;2024-03-25T11:38:56;78.03;;;71.37;;
13520;SDS011;6832;51.186;3.236;2024-03-25T11:41:23;82.10;;;74.47;;
13520;SDS011;6832;51.186;3.236;2024-03-25T11:43:49;76.47;;;69.57;;
13520;SDS011;6832;51.186;3.236;2024-03-25T11:46:17;74.40;;;67.33;;
13520;SDS011;6832;51.186;3.236;2024-03-25T11:48:44;60.03;;;50.77;;
13520;SDS011;6832;51.186;3.236;2024-03-25T11:51:12;70.43;;;55.90;;
13520;SDS011;6832;51.186;3.236;2024-03-25T11:53:41;69.93;;;62.90;;
13520;SDS011;6832;51.186;3.236;2024-03-25T11:56:07;82.60;;;74.60;;
13520;SDS011;6832;51.186;3.236;2024-03-25T11:58:33;112.73;;;102.37;;
13520;SDS011;6832;51.186;3.236;2024-03-25T12:00:59;75.37;;;67.93;;
13520;SDS011;6832;51.186;3.236;2024-03-25T12:03:26;70.57;;;58.67;;
13520;SDS011;6832;51.186;3.236;2024-03-25T12:05:52;74.77;;;67.07;;
13520;SDS011;6832;51.186;3.236;2024-03-25T12:08:19;88.60;;;79.03;;
13520;SDS011;6832;51.186;3.236;2024-03-25T12:10:45;90.03;;;81.63;;
13520;SDS011;6832;51.186;3.236;2024-03-25T12:13:30;81.77;;;73.53;;
13520;SDS011;6832;51.186;3.236;2024-03-25T12:15:56;79.43;;;72.53;;
13520;SDS011;6832;51.186;3.236;2024-03-25T12:18:22;76.80;;;69.90;;
13520;SDS011;6832;51.186;3.236;2024-03-25T12:20:48;80.03;;;73.07;;
13520;SDS011;6832;51.186;3.236;2024-03-25T12:23:14;110.23;;;81.47;;
13520;SDS011;6832;51.186;3.236;2024-03-25T12:25:47;86.60;;;78.07;;
13520;SDS011;6832;51.186;3.236;2024-03-25T12:28:14;96.37;;;81.83;;
13520;SDS011;6832;51.186;3.236;2024-03-25T12:30:48;85.73;;;76.33;;
13520;SDS011;6832;51.186;3.236;2024-03-25T12:33:14;84.43;;;76.23;;
13520;SDS011;6832;51.186;3.236;2024-03-25T12:35:41;94.60;;;82.43;;
13520;SDS011;6832;51.186;3.236;2024-03-25T12:38:07;73.60;;;65.53;;
13520;SDS011;6832;51.186;3.236;2024-03-25T12:40:33;75.60;;;69.00;;
13520;SDS011;6832;51.186;3.236;2024-03-25T12:43:00;80.87;;;73.13;;
13520;SDS011;6832;51.186;3.236;2024-03-25T12:45:26;83.63;;;58.17;;
13520;SDS011;6832;51.186;3.236;2024-03-25T12:47:52;67.57;;;60.63;;
13520;SDS011;6832;51.186;3.236;2024-03-25T12:50:19;72.97;;;59.47;;
13520;SDS011;6832;51.186;3.236;2024-03-25T12:52:45;102.13;;;74.67;;
13520;SDS011;6832;51.186;3.236;2024-03-25T12:55:11;74.10;;;67.07;;
13520;SDS011;6832;51.186;3.236;2024-03-25T12:57:36;85.20;;;77.17;;
13520;SDS011;6832;51.186;3.236;2024-03-25T13:00:05;94.57;;;86.60;;
13520;SDS011;6832;51.186;3.236;2024-03-25T13:02:31;79.93;;;71.97;;
13520;SDS011;6832;51.186;3.236;2024-03-25T13:04:58;79.63;;;71.63;;
13520;SDS011;6832;51.186;3.236;2024-03-25T13:07:24;81.47;;;73.80;;
13520;SDS011;6832;51.186;3.236;2024-03-25T13:09:50;84.47;;;70.43;;
13520;SDS011;6832;51.186;3.236;2024-03-25T13:12:15;81.07;;;74.03;;
13520;SDS011;6832;51.186;3.236;2024-03-25T13:14:42;85.20;;;76.10;;
13520;SDS011;6832;51.186;3.236;2024-03-25T13:17:09;81.00;;;72.90;;
13520;SDS011;6832;51.186;3.236;2024-03-25T13:19:35;76.13;;;69.23;;
13520;SDS011;6832;51.186;3.236;2024-03-25T13:22:01;74.60;;;68.23;;
13520;SDS011;6832;51.186;3.236;2024-03-25T13:24:27;81.50;;;73.23;;
13520;SDS011;6832;51.186;3.236;2024-03-25T13:26:53;74.50;;;67.23;;
13520;SDS011;6832;51.186;3.236;2024-03-25T13:29:19;76.23;;;68.57;;
13520;SDS011;6832;51.186;3.236;2024-03-25T13:31:45;73.03;;;65.40;;
13520;SDS011;6832;51.186;3.236;2024-03-25T13:34:12;63.27;;;56.80;;
13520;SDS011;6832;51.186;3.236;2024-03-25T13:36:38;65.23;;;57.67;;
13520;SDS011;6832;51.186;3.236;2024-03-25T13:39:04;73.77;;;66.40;;
13520;SDS011;6832;51.186;3.236;2024-03-25T13:41:30;67.40;;;60.77;;
13520;SDS011;6832;51.186;3.236;2024-03-25T13:43:56;69.03;;;62.10;;
13520;SDS011;6832;51.186;3.236;2024-03-25T13:46:22;69.30;;;61.80;;
13520;SDS011;6832;51.186;3.236;2024-03-25T13:48:49;66.63;;;59.83;;
13520;SDS011;6832;51.186;3.236;2024-03-25T13:51:16;72.07;;;64.97;;
13520;SDS011;6832;51.186;3.236;2024-03-25T13:53:42;67.40;;;60.33;;
13520;SDS011;6832;51.186;3.236;2024-03-25T13:56:09;90.50;;;58.20;;
13520;SDS011;6832;51.186;3.236;2024-03-25T13:58:35;61.37;;;54.90;;
13520;SDS011;6832;51.186;3.236;2024-03-25T14:01:01;63.67;;;57.60;;
13520;SDS011;6832;51.186;3.236;2024-03-25T14:03:27;60.70;;;54.20;;
13520;SDS011;6832;51.186;3.236;2024-03-25T14:05:53;78.77;;;61.23;;
13520;SDS011;6832;51.186;3.236;2024-03-25T14:08:20;66.37;;;60.30;;
13520;SDS011;6832;51.186;3.236;2024-03-25T14:10:56;64.27;;;56.30;;
13520;SDS011;6832;51.186;3.236;2024-03-25T14:13:22;61.37;;;55.97;;
13520;SDS011;6832;51.186;3.236;2024-03-25T14:15:48;61.47;;;54.90;;
13520;SDS011;6832;51.186;3.236;2024-03-25T14:18:14;67.30;;;58.17;;
13520;SDS011;6832;51.186;3.236;2024-03-25T14:20:41;61.83;;;55.07;;
13520;SDS011;6832;51.186;3.236;2024-03-25T14:23:07;65.80;;;59.10;;
13520;SDS011;6832;51.186;3.236;2024-03-25T14:25:34;63.80;;;57.00;;
13520;SDS011;6832;51.186;3.236;2024-03-25T14:28:00;84.43;;;52.43;;
13520;SDS011;6832;51.186;3.236;2024-03-25T14:30:26;57.63;;;50.40;;